sensor_id;sensor_type;location;lat;lon;timestamp;P1;durP1;ratioP1;P2;durP2;ratioP2
16139;SDS011;8175;49.326;12.690;2022-08-19T00:00:00;28.53;;;19.47;;
16139;SDS011;8175;49.326;12.690;2022-08-19T00:02:28;27.77;;;20.47;;
16139;SDS011;8175;49.326;12.690;2022-08-19T00:04:54;33.10;;;22.07;;
16139;SDS011;8175;49.326;12.690;2022-08-19T00:07:20;34.20;;;22.53;;
16139;SDS011;8175;49.326;12.690;2022-08-19T00:09:46;41.20;;;26.13;;
16139;SDS011;8175;49.326;12.690;2022-08-19T00:12:11;46.00;;;28.57;;
16139;SDS011;8175;49.326;12.690;2022-08-19T00:14:38;45.63;;;27.33;;
16139;SDS011;8175;49.326;12.690;2022-08-19T00:17:05;52.37;;;27.60;;
16139;SDS011;8175;49.326;12.690;2022-08-19T00:19:33;35.73;;;24.37;;
16139;SDS011;8175;49.326;12.690;2022-08-19T00:21:59;42.93;;;25.27;;
16139;SDS011;8175;49.326;12.690;2022-08-19T00:24:25;32.83;;;23.37;;
16139;SDS011;8175;49.326;12.690;2022-08-19T00:26:53;37.17;;;24.27;;
16139;SDS011;8175;49.326;12.690;2022-08-19T00:29:22;41.30;;;25.03;;
16139;SDS011;8175;49.326;12.690;2022-08-19T00:31:49;38.70;;;24.27;;
16139;SDS011;8175;49.326;12.690;2022-08-19T00:34:18;37.20;;;23.47;;
16139;SDS011;8175;49.326;12.690;2022-08-19T00:36:44;34.67;;;23.77;;
16139;SDS011;8175;49.326;12.690;2022-08-19T00:39:10;34.33;;;23.43;;
16139;SDS011;8175;49.326;12.690;2022-08-19T00:41:36;34.00;;;23.63;;
16139;SDS011;8175;49.326;12.690;2022-08-19T00:44:08;38.30;;;24.37;;
16139;SDS011;8175;49.326;12.690;2022-08-19T00:46:40;41.63;;;24.10;;
16139;SDS011;8175;49.326;12.690;2022-08-19T00:49:14;34.43;;;23.47;;
16139;SDS011;8175;49.326;12.690;2022-08-19T00:52:09;39.33;;;25.23;;
16139;SDS011;8175;49.326;12.690;2022-08-19T00:54:39;39.67;;;24.27;;
16139;SDS011;8175;49.326;12.690;2022-08-19T00:57:09;34.97;;;23.73;;
16139;SDS011;8175;49.326;12.690;2022-08-19T00:59:38;39.90;;;23.97;;
16139;SDS011;8175;49.326;12.690;2022-08-19T01:02:06;61.00;;;27.43;;
16139;SDS011;8175;49.326;12.690;2022-08-19T01:04:32;42.87;;;24.43;;
16139;SDS011;8175;49.326;12.690;2022-08-19T01:06:57;47.60;;;23.60;;
16139;SDS011;8175;49.326;12.690;2022-08-19T01:09:24;62.47;;;25.27;;
16139;SDS011;8175;49.326;12.690;2022-08-19T01:11:50;48.57;;;23.47;;
16139;SDS011;8175;49.326;12.690;2022-08-19T01:14:16;36.77;;;22.73;;
16139;SDS011;8175;49.326;12.690;2022-08-19T01:16:43;48.97;;;24.63;;
16139;SDS011;8175;49.326;12.690;2022-08-19T01:19:22;42.30;;;23.67;;
16139;SDS011;8175;49.326;12.690;2022-08-19T01:22:14;35.53;;;23.13;;
16139;SDS011;8175;49.326;12.690;2022-08-19T01:24:48;36.73;;;22.97;;
16139;SDS011;8175;49.326;12.690;2022-08-19T01:27:14;36.53;;;23.20;;
16139;SDS011;8175;49.326;12.690;2022-08-19T01:29:41;34.43;;;22.00;;
16139;SDS011;8175;49.326;12.690;2022-08-19T01:32:07;30.10;;;20.30;;
16139;SDS011;8175;49.326;12.690;2022-08-19T01:34:36;27.43;;;19.57;;
16139;SDS011;8175;49.326;12.690;2022-08-19T01:37:06;30.67;;;20.23;;
16139;SDS011;8175;49.326;12.690;2022-08-19T01:39:35;32.63;;;21.87;;
16139;SDS011;8175;49.326;12.690;2022-08-19T01:42:02;34.10;;;22.40;;
16139;SDS011;8175;49.326;12.690;2022-08-19T01:44:29;34.80;;;23.80;;
16139;SDS011;8175;49.326;12.690;2022-08-19T01:46:55;41.93;;;24.47;;
16139;SDS011;8175;49.326;12.690;2022-08-19T01:49:21;31.40;;;21.37;;
16139;SDS011;8175;49.326;12.690;2022-08-19T01:51:49;45.13;;;27.20;;
16139;SDS011;8175;49.326;12.690;2022-08-19T01:54:16;44.20;;;26.17;;
16139;SDS011;8175;49.326;12.690;2022-08-19T01:56:43;41.23;;;25.37;;
16139;SDS011;8175;49.326;12.690;2022-08-19T01:59:13;39.83;;;25.97;;
16139;SDS011;8175;49.326;12.690;2022-08-19T02:01:42;41.57;;;25.87;;
16139;SDS011;8175;49.326;12.690;2022-08-19T02:04:07;42.83;;;26.60;;
16139;SDS011;8175;49.326;12.690;2022-08-19T02:06:34;42.07;;;25.43;;
16139;SDS011;8175;49.326;12.690;2022-08-19T02:09:00;37.73;;;23.60;;
16139;SDS011;8175;49.326;12.690;2022-08-19T02:11:28;37.90;;;25.43;;
16139;SDS011;8175;49.326;12.690;2022-08-19T02:13:59;36.80;;;23.77;;
16139;SDS011;8175;49.326;12.690;2022-08-19T02:16:27;33.67;;;23.03;;
16139;SDS011;8175;49.326;12.690;2022-08-19T02:18:52;27.67;;;20.10;;
16139;SDS011;8175;49.326;12.690;2022-08-19T02:21:20;26.10;;;18.73;;
16139;SDS011;8175;49.326;12.690;2022-08-19T02:23:47;29.13;;;20.57;;
16139;SDS011;8175;49.326;12.690;2022-08-19T02:26:13;31.43;;;19.77;;
16139;SDS011;8175;49.326;12.690;2022-08-19T02:28:40;25.57;;;17.53;;
16139;SDS011;8175;49.326;12.690;2022-08-19T02:31:13;31.47;;;20.70;;
16139;SDS011;8175;49.326;12.690;2022-08-19T02:33:40;24.20;;;18.30;;
16139;SDS011;8175;49.326;12.690;2022-08-19T02:36:07;24.53;;;18.00;;
16139;SDS011;8175;49.326;12.690;2022-08-19T02:38:33;21.83;;;18.10;;
16139;SDS011;8175;49.326;12.690;2022-08-19T02:41:04;27.13;;;17.93;;
16139;SDS011;8175;49.326;12.690;2022-08-19T02:43:34;27.60;;;18.73;;
16139;SDS011;8175;49.326;12.690;2022-08-19T02:46:01;23.27;;;16.67;;
16139;SDS011;8175;49.326;12.690;2022-08-19T02:48:51;24.43;;;17.77;;
16139;SDS011;8175;49.326;12.690;2022-08-19T02:51:31;20.83;;;16.77;;
16139;SDS011;8175;49.326;12.690;2022-08-19T02:53:59;23.47;;;16.83;;
16139;SDS011;8175;49.326;12.690;2022-08-19T02:56:25;28.30;;;18.83;;
16139;SDS011;8175;49.326;12.690;2022-08-19T02:58:52;29.77;;;21.50;;
16139;SDS011;8175;49.326;12.690;2022-08-19T03:01:20;32.40;;;22.13;;
16139;SDS011;8175;49.326;12.690;2022-08-19T03:03:48;34.77;;;22.60;;
16139;SDS011;8175;49.326;12.690;2022-08-19T03:06:14;37.33;;;24.23;;
16139;SDS011;8175;49.326;12.690;2022-08-19T03:08:41;33.90;;;23.43;;
16139;SDS011;8175;49.326;12.690;2022-08-19T03:11:12;36.53;;;24.47;;
16139;SDS011;8175;49.326;12.690;2022-08-19T03:13:40;30.43;;;21.63;;
16139;SDS011;8175;49.326;12.690;2022-08-19T03:16:05;34.67;;;23.00;;
16139;SDS011;8175;49.326;12.690;2022-08-19T03:18:31;30.87;;;20.77;;
16139;SDS011;8175;49.326;12.690;2022-08-19T03:20:57;28.60;;;21.10;;
16139;SDS011;8175;49.326;12.690;2022-08-19T03:23:22;29.73;;;19.77;;
16139;SDS011;8175;49.326;12.690;2022-08-19T03:25:49;27.63;;;19.27;;
16139;SDS011;8175;49.326;12.690;2022-08-19T03:28:16;30.27;;;21.37;;
16139;SDS011;8175;49.326;12.690;2022-08-19T03:30:42;41.87;;;28.20;;
16139;SDS011;8175;49.326;12.690;2022-08-19T03:33:21;47.83;;;28.43;;
16139;SDS011;8175;49.326;12.690;2022-08-19T03:35:47;46.03;;;29.07;;
16139;SDS011;8175;49.326;12.690;2022-08-19T03:38:23;50.40;;;32.43;;
16139;SDS011;8175;49.326;12.690;2022-08-19T03:40:49;55.57;;;37.07;;
16139;SDS011;8175;49.326;12.690;2022-08-19T03:43:15;57.03;;;36.10;;
16139;SDS011;8175;49.326;12.690;2022-08-19T03:45:43;54.90;;;36.50;;
16139;SDS011;8175;49.326;12.690;2022-08-19T03:48:09;54.60;;;36.10;;
16139;SDS011;8175;49.326;12.690;2022-08-19T03:50:38;59.00;;;37.90;;
16139;SDS011;8175;49.326;12.690;2022-08-19T03:53:05;63.97;;;40.53;;
16139;SDS011;8175;49.326;12.690;2022-08-19T03:55:32;63.83;;;39.33;;
16139;SDS011;8175;49.326;12.690;2022-08-19T03:57:57;64.30;;;40.13;;
16139;SDS011;8175;49.326;12.690;2022-08-19T04:00:24;64.50;;;39.30;;
16139;SDS011;8175;49.326;12.690;2022-08-19T04:02:49;70.23;;;41.83;;
16139;SDS011;8175;49.326;12.690;2022-08-19T04:05:15;70.50;;;41.67;;
16139;SDS011;8175;49.326;12.690;2022-08-19T04:07:41;69.83;;;41.20;;
16139;SDS011;8175;49.326;12.690;2022-08-19T04:10:07;73.33;;;40.43;;
16139;SDS011;8175;49.326;12.690;2022-08-19T04:12:32;70.80;;;40.17;;
16139;SDS011;8175;49.326;12.690;2022-08-19T04:14:58;60.90;;;37.50;;
16139;SDS011;8175;49.326;12.690;2022-08-19T04:17:24;61.30;;;38.13;;
16139;SDS011;8175;49.326;12.690;2022-08-19T04:19:49;58.77;;;38.13;;
16139;SDS011;8175;49.326;12.690;2022-08-19T04:22:15;73.13;;;38.20;;
16139;SDS011;8175;49.326;12.690;2022-08-19T04:24:41;65.90;;;37.20;;
16139;SDS011;8175;49.326;12.690;2022-08-19T04:27:06;56.60;;;32.73;;
16139;SDS011;8175;49.326;12.690;2022-08-19T04:29:32;50.13;;;31.63;;
16139;SDS011;8175;49.326;12.690;2022-08-19T04:31:58;46.27;;;30.57;;
16139;SDS011;8175;49.326;12.690;2022-08-19T04:34:26;47.53;;;30.33;;
16139;SDS011;8175;49.326;12.690;2022-08-19T04:36:53;46.60;;;29.43;;
16139;SDS011;8175;49.326;12.690;2022-08-19T04:39:21;47.70;;;29.97;;
16139;SDS011;8175;49.326;12.690;2022-08-19T04:42:12;42.63;;;28.80;;
16139;SDS011;8175;49.326;12.690;2022-08-19T04:44:57;45.10;;;29.30;;
16139;SDS011;8175;49.326;12.690;2022-08-19T04:47:23;44.03;;;28.30;;
16139;SDS011;8175;49.326;12.690;2022-08-19T04:49:49;45.53;;;28.53;;
16139;SDS011;8175;49.326;12.690;2022-08-19T04:52:15;40.17;;;27.50;;
16139;SDS011;8175;49.326;12.690;2022-08-19T04:54:40;41.77;;;26.87;;
16139;SDS011;8175;49.326;12.690;2022-08-19T04:57:07;46.03;;;29.80;;
16139;SDS011;8175;49.326;12.690;2022-08-19T04:59:34;43.03;;;28.77;;
16139;SDS011;8175;49.326;12.690;2022-08-19T05:02:01;44.20;;;29.40;;
16139;SDS011;8175;49.326;12.690;2022-08-19T05:04:27;38.93;;;27.57;;
16139;SDS011;8175;49.326;12.690;2022-08-19T05:06:56;40.30;;;27.13;;
16139;SDS011;8175;49.326;12.690;2022-08-19T05:09:22;41.23;;;27.57;;
16139;SDS011;8175;49.326;12.690;2022-08-19T05:11:48;40.40;;;28.53;;
16139;SDS011;8175;49.326;12.690;2022-08-19T05:14:15;37.07;;;26.80;;
16139;SDS011;8175;49.326;12.690;2022-08-19T05:16:41;33.80;;;25.20;;
16139;SDS011;8175;49.326;12.690;2022-08-19T05:19:07;35.33;;;24.97;;
16139;SDS011;8175;49.326;12.690;2022-08-19T05:21:51;36.30;;;25.83;;
16139;SDS011;8175;49.326;12.690;2022-08-19T05:24:35;36.27;;;25.10;;
16139;SDS011;8175;49.326;12.690;2022-08-19T05:27:01;42.60;;;28.90;;
16139;SDS011;8175;49.326;12.690;2022-08-19T05:29:27;38.60;;;30.43;;
16139;SDS011;8175;49.326;12.690;2022-08-19T05:31:54;41.37;;;30.50;;
16139;SDS011;8175;49.326;12.690;2022-08-19T05:34:22;44.40;;;33.90;;
16139;SDS011;8175;49.326;12.690;2022-08-19T05:36:51;50.03;;;37.53;;
16139;SDS011;8175;49.326;12.690;2022-08-19T05:39:21;51.00;;;40.40;;
16139;SDS011;8175;49.326;12.690;2022-08-19T05:41:49;57.77;;;41.90;;
16139;SDS011;8175;49.326;12.690;2022-08-19T05:44:19;55.80;;;42.00;;
16139;SDS011;8175;49.326;12.690;2022-08-19T05:46:46;56.47;;;45.00;;
16139;SDS011;8175;49.326;12.690;2022-08-19T05:49:12;61.10;;;44.13;;
16139;SDS011;8175;49.326;12.690;2022-08-19T05:51:40;60.23;;;46.20;;
16139;SDS011;8175;49.326;12.690;2022-08-19T05:54:05;63.50;;;45.03;;
16139;SDS011;8175;49.326;12.690;2022-08-19T05:56:33;57.47;;;43.30;;
16139;SDS011;8175;49.326;12.690;2022-08-19T05:59:01;59.77;;;45.70;;
16139;SDS011;8175;49.326;12.690;2022-08-19T06:01:27;55.87;;;44.40;;
16139;SDS011;8175;49.326;12.690;2022-08-19T06:03:53;56.27;;;42.23;;
16139;SDS011;8175;49.326;12.690;2022-08-19T06:06:19;59.00;;;44.80;;
16139;SDS011;8175;49.326;12.690;2022-08-19T06:08:45;57.67;;;43.53;;
16139;SDS011;8175;49.326;12.690;2022-08-19T06:13:46;51.90;;;41.90;;
16139;SDS011;8175;49.326;12.690;2022-08-19T06:16:16;55.80;;;42.47;;
16139;SDS011;8175;49.326;12.690;2022-08-19T06:18:47;55.30;;;42.87;;
16139;SDS011;8175;49.326;12.690;2022-08-19T06:21:17;54.73;;;44.47;;
16139;SDS011;8175;49.326;12.690;2022-08-19T06:23:47;52.53;;;41.83;;
16139;SDS011;8175;49.326;12.690;2022-08-19T06:26:14;46.27;;;39.90;;
16139;SDS011;8175;49.326;12.690;2022-08-19T06:28:40;45.93;;;39.33;;
16139;SDS011;8175;49.326;12.690;2022-08-19T06:31:10;48.20;;;38.80;;
16139;SDS011;8175;49.326;12.690;2022-08-19T06:33:38;44.70;;;38.53;;
16139;SDS011;8175;49.326;12.690;2022-08-19T06:36:05;43.23;;;38.43;;
16139;SDS011;8175;49.326;12.690;2022-08-19T06:38:32;46.20;;;39.73;;
16139;SDS011;8175;49.326;12.690;2022-08-19T06:41:04;45.07;;;40.13;;
16139;SDS011;8175;49.326;12.690;2022-08-19T06:43:30;46.13;;;40.53;;
16139;SDS011;8175;49.326;12.690;2022-08-19T06:45:56;50.67;;;41.27;;
16139;SDS011;8175;49.326;12.690;2022-08-19T06:48:21;45.97;;;39.33;;
16139;SDS011;8175;49.326;12.690;2022-08-19T06:50:47;41.70;;;37.17;;
16139;SDS011;8175;49.326;12.690;2022-08-19T06:53:14;38.80;;;34.70;;
16139;SDS011;8175;49.326;12.690;2022-08-19T06:55:40;36.17;;;32.37;;
16139;SDS011;8175;49.326;12.690;2022-08-19T06:58:06;36.63;;;32.73;;
16139;SDS011;8175;49.326;12.690;2022-08-19T07:00:32;35.73;;;32.17;;
16139;SDS011;8175;49.326;12.690;2022-08-19T07:02:58;30.13;;;27.23;;
16139;SDS011;8175;49.326;12.690;2022-08-19T07:05:25;30.70;;;27.60;;
16139;SDS011;8175;49.326;12.690;2022-08-19T07:07:51;29.40;;;26.57;;
16139;SDS011;8175;49.326;12.690;2022-08-19T07:10:16;28.60;;;25.60;;
16139;SDS011;8175;49.326;12.690;2022-08-19T07:12:43;28.30;;;25.43;;
16139;SDS011;8175;49.326;12.690;2022-08-19T07:15:09;30.33;;;27.33;;
16139;SDS011;8175;49.326;12.690;2022-08-19T07:17:35;30.17;;;27.17;;
16139;SDS011;8175;49.326;12.690;2022-08-19T07:20:04;28.73;;;25.83;;
16139;SDS011;8175;49.326;12.690;2022-08-19T07:22:34;29.53;;;26.63;;
16139;SDS011;8175;49.326;12.690;2022-08-19T07:25:01;28.30;;;25.40;;
16139;SDS011;8175;49.326;12.690;2022-08-19T07:27:28;26.27;;;23.50;;
16139;SDS011;8175;49.326;12.690;2022-08-19T07:29:54;25.50;;;23.00;;
16139;SDS011;8175;49.326;12.690;2022-08-19T07:32:20;26.03;;;23.33;;
16139;SDS011;8175;49.326;12.690;2022-08-19T07:34:45;26.02;;;23.55;;
16139;SDS011;8175;49.326;12.690;2022-08-19T07:37:11;25.77;;;23.27;;
16139;SDS011;8175;49.326;12.690;2022-08-19T07:39:37;25.13;;;22.63;;
16139;SDS011;8175;49.326;12.690;2022-08-19T07:42:05;25.65;;;23.05;;
16139;SDS011;8175;49.326;12.690;2022-08-19T07:44:33;23.95;;;21.65;;
16139;SDS011;8175;49.326;12.690;2022-08-19T07:46:59;25.15;;;22.63;;
16139;SDS011;8175;49.326;12.690;2022-08-19T07:49:26;24.58;;;22.10;;
16139;SDS011;8175;49.326;12.690;2022-08-19T07:51:54;26.13;;;23.40;;
16139;SDS011;8175;49.326;12.690;2022-08-19T07:54:23;25.05;;;22.58;;
16139;SDS011;8175;49.326;12.690;2022-08-19T07:56:50;24.80;;;22.48;;
16139;SDS011;8175;49.326;12.690;2022-08-19T07:59:17;24.02;;;21.70;;
16139;SDS011;8175;49.326;12.690;2022-08-19T08:01:44;24.88;;;22.45;;
16139;SDS011;8175;49.326;12.690;2022-08-19T08:04:10;25.15;;;22.48;;
16139;SDS011;8175;49.326;12.690;2022-08-19T08:06:55;24.52;;;22.15;;
16139;SDS011;8175;49.326;12.690;2022-08-19T08:09:40;27.27;;;24.58;;
16139;SDS011;8175;49.326;12.690;2022-08-19T08:12:10;23.85;;;21.55;;
16139;SDS011;8175;49.326;12.690;2022-08-19T08:14:43;22.58;;;20.45;;
16139;SDS011;8175;49.326;12.690;2022-08-19T08:17:15;24.90;;;22.45;;
16139;SDS011;8175;49.326;12.690;2022-08-19T08:19:41;24.95;;;22.52;;
16139;SDS011;8175;49.326;12.690;2022-08-19T08:22:08;24.35;;;21.90;;
16139;SDS011;8175;49.326;12.690;2022-08-19T08:24:54;26.67;;;24.08;;
16139;SDS011;8175;49.326;12.690;2022-08-19T08:27:23;25.85;;;23.35;;
16139;SDS011;8175;49.326;12.690;2022-08-19T08:29:49;25.92;;;23.38;;
16139;SDS011;8175;49.326;12.690;2022-08-19T08:32:14;24.70;;;22.20;;
16139;SDS011;8175;49.326;12.690;2022-08-19T08:34:40;25.88;;;23.25;;
16139;SDS011;8175;49.326;12.690;2022-08-19T08:37:06;25.23;;;22.75;;
16139;SDS011;8175;49.326;12.690;2022-08-19T08:39:32;28.02;;;25.23;;
16139;SDS011;8175;49.326;12.690;2022-08-19T08:42:08;25.90;;;23.38;;
16139;SDS011;8175;49.326;12.690;2022-08-19T08:47:12;27.23;;;24.52;;
16139;SDS011;8175;49.326;12.690;2022-08-19T08:49:51;25.67;;;23.00;;
16139;SDS011;8175;49.326;12.690;2022-08-19T08:52:25;26.38;;;23.88;;
16139;SDS011;8175;49.326;12.690;2022-08-19T08:54:53;27.60;;;24.90;;
16139;SDS011;8175;49.326;12.690;2022-08-19T08:57:57;27.33;;;24.63;;
16139;SDS011;8175;49.326;12.690;2022-08-19T09:02:51;25.05;;;22.58;;
16139;SDS011;8175;49.326;12.690;2022-08-19T09:05:19;24.20;;;21.90;;
16139;SDS011;8175;49.326;12.690;2022-08-19T09:13:38;22.70;;;20.60;;
16139;SDS011;8175;49.326;12.690;2022-08-19T09:16:12;22.67;;;20.27;;
16139;SDS011;8175;49.326;12.690;2022-08-19T09:21:12;22.75;;;20.55;;
16139;SDS011;8175;49.326;12.690;2022-08-19T09:23:39;22.13;;;20.08;;
16139;SDS011;8175;49.326;12.690;2022-08-19T09:26:13;21.80;;;19.63;;
16139;SDS011;8175;49.326;12.690;2022-08-19T09:28:41;21.40;;;19.30;;
16139;SDS011;8175;49.326;12.690;2022-08-19T09:31:09;20.23;;;18.23;;
16139;SDS011;8175;49.326;12.690;2022-08-19T09:33:36;21.30;;;19.33;;
16139;SDS011;8175;49.326;12.690;2022-08-19T09:36:08;19.88;;;18.00;;
16139;SDS011;8175;49.326;12.690;2022-08-19T09:38:36;20.80;;;18.90;;
16139;SDS011;8175;49.326;12.690;2022-08-19T09:41:06;20.70;;;18.80;;
16139;SDS011;8175;49.326;12.690;2022-08-19T09:43:33;18.23;;;16.40;;
16139;SDS011;8175;49.326;12.690;2022-08-19T09:46:02;18.23;;;16.42;;
16139;SDS011;8175;49.326;12.690;2022-08-19T09:48:30;20.67;;;18.67;;
16139;SDS011;8175;49.326;12.690;2022-08-19T09:51:07;18.60;;;16.80;;
16139;SDS011;8175;49.326;12.690;2022-08-19T09:53:35;21.25;;;19.35;;
16139;SDS011;8175;49.326;12.690;2022-08-19T09:56:03;18.30;;;16.50;;
16139;SDS011;8175;49.326;12.690;2022-08-19T09:58:31;18.02;;;16.40;;
16139;SDS011;8175;49.326;12.690;2022-08-19T10:00:58;15.70;;;14.30;;
16139;SDS011;8175;49.326;12.690;2022-08-19T10:03:26;18.17;;;16.38;;
16139;SDS011;8175;49.326;12.690;2022-08-19T10:05:54;19.27;;;17.52;;
16139;SDS011;8175;49.326;12.690;2022-08-19T10:08:25;19.65;;;17.77;;
16139;SDS011;8175;49.326;12.690;2022-08-19T10:10:53;19.25;;;17.45;;
16139;SDS011;8175;49.326;12.690;2022-08-19T10:13:20;20.15;;;18.08;;
16139;SDS011;8175;49.326;12.690;2022-08-19T10:15:48;17.35;;;15.75;;
16139;SDS011;8175;49.326;12.690;2022-08-19T10:18:18;15.50;;;14.00;;
16139;SDS011;8175;49.326;12.690;2022-08-19T10:20:46;14.13;;;12.77;;
16139;SDS011;8175;49.326;12.690;2022-08-19T10:23:13;12.87;;;11.67;;
16139;SDS011;8175;49.326;12.690;2022-08-19T10:25:40;13.13;;;11.83;;
16139;SDS011;8175;49.326;12.690;2022-08-19T10:28:07;13.37;;;12.17;;
16139;SDS011;8175;49.326;12.690;2022-08-19T10:30:36;11.90;;;10.70;;
16139;SDS011;8175;49.326;12.690;2022-08-19T10:33:04;12.23;;;11.03;;
16139;SDS011;8175;49.326;12.690;2022-08-19T10:35:30;13.33;;;12.03;;
16139;SDS011;8175;49.326;12.690;2022-08-19T10:37:56;12.60;;;11.50;;
16139;SDS011;8175;49.326;12.690;2022-08-19T10:40:26;12.10;;;11.00;;
16139;SDS011;8175;49.326;12.690;2022-08-19T10:42:53;11.87;;;10.67;;
16139;SDS011;8175;49.326;12.690;2022-08-19T10:45:19;12.87;;;11.73;;
16139;SDS011;8175;49.326;12.690;2022-08-19T10:47:48;13.30;;;12.10;;
16139;SDS011;8175;49.326;12.690;2022-08-19T10:50:13;12.40;;;11.30;;
16139;SDS011;8175;49.326;12.690;2022-08-19T10:53:02;12.60;;;11.50;;
16139;SDS011;8175;49.326;12.690;2022-08-19T10:55:29;12.80;;;11.60;;
16139;SDS011;8175;49.326;12.690;2022-08-19T10:58:14;12.17;;;11.07;;
16139;SDS011;8175;49.326;12.690;2022-08-19T11:00:43;12.60;;;11.43;;
16139;SDS011;8175;49.326;12.690;2022-08-19T11:03:15;12.03;;;10.77;;
16139;SDS011;8175;49.326;12.690;2022-08-19T11:05:41;12.27;;;11.10;;
16139;SDS011;8175;49.326;12.690;2022-08-19T11:08:07;11.43;;;10.20;;
16139;SDS011;8175;49.326;12.690;2022-08-19T11:10:36;11.05;;;9.88;;
16139;SDS011;8175;49.326;12.690;2022-08-19T11:13:05;11.38;;;10.27;;
16139;SDS011;8175;49.326;12.690;2022-08-19T11:15:31;9.98;;;9.07;;
16139;SDS011;8175;49.326;12.690;2022-08-19T11:17:57;9.20;;;8.45;;
16139;SDS011;8175;49.326;12.690;2022-08-19T11:20:22;9.75;;;8.98;;
16139;SDS011;8175;49.326;12.690;2022-08-19T11:22:48;9.05;;;8.23;;
16139;SDS011;8175;49.326;12.690;2022-08-19T11:25:17;9.73;;;8.82;;
16139;SDS011;8175;49.326;12.690;2022-08-19T11:27:43;8.95;;;8.15;;
16139;SDS011;8175;49.326;12.690;2022-08-19T11:30:09;8.55;;;7.85;;
16139;SDS011;8175;49.326;12.690;2022-08-19T11:32:36;8.65;;;7.95;;
16139;SDS011;8175;49.326;12.690;2022-08-19T11:35:02;7.93;;;7.15;;
16139;SDS011;8175;49.326;12.690;2022-08-19T11:37:28;7.43;;;6.65;;
16139;SDS011;8175;49.326;12.690;2022-08-19T11:39:54;7.43;;;6.72;;
16139;SDS011;8175;49.326;12.690;2022-08-19T11:42:19;7.43;;;6.50;;
16139;SDS011;8175;49.326;12.690;2022-08-19T11:45:04;6.68;;;6.10;;
16139;SDS011;8175;49.326;12.690;2022-08-19T11:47:30;7.45;;;6.85;;
16139;SDS011;8175;49.326;12.690;2022-08-19T11:49:56;7.00;;;6.40;;
16139;SDS011;8175;49.326;12.690;2022-08-19T11:52:22;7.20;;;6.50;;
16139;SDS011;8175;49.326;12.690;2022-08-19T11:54:47;6.75;;;6.15;;
16139;SDS011;8175;49.326;12.690;2022-08-19T11:57:13;7.07;;;6.47;;
16139;SDS011;8175;49.326;12.690;2022-08-19T11:59:41;6.50;;;5.90;;
16139;SDS011;8175;49.326;12.690;2022-08-19T12:02:12;5.95;;;5.47;;
16139;SDS011;8175;49.326;12.690;2022-08-19T12:04:40;6.15;;;5.63;;
16139;SDS011;8175;49.326;12.690;2022-08-19T12:07:06;5.80;;;5.40;;
16139;SDS011;8175;49.326;12.690;2022-08-19T12:09:31;5.68;;;5.28;;
16139;SDS011;8175;49.326;12.690;2022-08-19T12:11:59;6.90;;;6.35;;
16139;SDS011;8175;49.326;12.690;2022-08-19T12:14:26;5.72;;;5.22;;
16139;SDS011;8175;49.326;12.690;2022-08-19T12:16:55;6.03;;;5.53;;
16139;SDS011;8175;49.326;12.690;2022-08-19T12:19:22;6.28;;;5.75;;
16139;SDS011;8175;49.326;12.690;2022-08-19T12:21:49;6.25;;;5.65;;
16139;SDS011;8175;49.326;12.690;2022-08-19T12:24:16;6.72;;;6.13;;
16139;SDS011;8175;49.326;12.690;2022-08-19T12:26:47;7.07;;;6.50;;
16139;SDS011;8175;49.326;12.690;2022-08-19T12:29:13;10.18;;;6.28;;
16139;SDS011;8175;49.326;12.690;2022-08-19T12:31:39;6.68;;;6.10;;
16139;SDS011;8175;49.326;12.690;2022-08-19T12:34:05;7.03;;;6.40;;
16139;SDS011;8175;49.326;12.690;2022-08-19T12:36:33;5.43;;;5.03;;
16139;SDS011;8175;49.326;12.690;2022-08-19T12:38:59;5.97;;;5.57;;
16139;SDS011;8175;49.326;12.690;2022-08-19T12:41:24;6.18;;;5.68;;
16139;SDS011;8175;49.326;12.690;2022-08-19T12:43:51;5.63;;;5.13;;
16139;SDS011;8175;49.326;12.690;2022-08-19T12:46:17;6.93;;;6.32;;
16139;SDS011;8175;49.326;12.690;2022-08-19T12:48:44;6.22;;;5.72;;
16139;SDS011;8175;49.326;12.690;2022-08-19T12:51:12;6.57;;;5.97;;
16139;SDS011;8175;49.326;12.690;2022-08-19T12:53:40;6.35;;;5.85;;
16139;SDS011;8175;49.326;12.690;2022-08-19T12:56:07;6.15;;;5.65;;
16139;SDS011;8175;49.326;12.690;2022-08-19T12:58:33;6.07;;;5.57;;
16139;SDS011;8175;49.326;12.690;2022-08-19T13:01:05;6.68;;;6.15;;
16139;SDS011;8175;49.326;12.690;2022-08-19T13:03:35;6.80;;;6.25;;
16139;SDS011;8175;49.326;12.690;2022-08-19T13:06:01;7.13;;;6.45;;
16139;SDS011;8175;49.326;12.690;2022-08-19T13:08:27;8.10;;;7.30;;
16139;SDS011;8175;49.326;12.690;2022-08-19T13:10:53;7.97;;;7.20;;
16139;SDS011;8175;49.326;12.690;2022-08-19T13:13:19;7.30;;;6.60;;
16139;SDS011;8175;49.326;12.690;2022-08-19T13:15:44;6.78;;;6.28;;
16139;SDS011;8175;49.326;12.690;2022-08-19T13:18:10;6.93;;;6.32;;
16139;SDS011;8175;49.326;12.690;2022-08-19T13:20:37;6.57;;;6.07;;
16139;SDS011;8175;49.326;12.690;2022-08-19T13:23:05;6.35;;;5.82;;
16139;SDS011;8175;49.326;12.690;2022-08-19T13:25:31;7.70;;;6.90;;
16139;SDS011;8175;49.326;12.690;2022-08-19T13:27:58;7.35;;;6.75;;
16139;SDS011;8175;49.326;12.690;2022-08-19T13:30:24;7.47;;;6.78;;
16139;SDS011;8175;49.326;12.690;2022-08-19T13:33:08;6.88;;;6.38;;
16139;SDS011;8175;49.326;12.690;2022-08-19T13:35:40;7.80;;;7.00;;
16139;SDS011;8175;49.326;12.690;2022-08-19T13:38:07;7.57;;;6.90;;
16139;SDS011;8175;49.326;12.690;2022-08-19T13:40:32;8.00;;;7.32;;
16139;SDS011;8175;49.326;12.690;2022-08-19T13:42:58;9.55;;;6.53;;
16139;SDS011;8175;49.326;12.690;2022-08-19T13:45:25;7.18;;;6.57;;
16139;SDS011;8175;49.326;12.690;2022-08-19T13:47:53;6.50;;;5.90;;
16139;SDS011;8175;49.326;12.690;2022-08-19T13:50:23;8.00;;;7.30;;
16139;SDS011;8175;49.326;12.690;2022-08-19T13:52:52;7.75;;;7.15;;
16139;SDS011;8175;49.326;12.690;2022-08-19T13:55:18;8.23;;;7.53;;
16139;SDS011;8175;49.326;12.690;2022-08-19T13:57:44;8.23;;;7.45;;
16139;SDS011;8175;49.326;12.690;2022-08-19T14:00:12;7.90;;;7.30;;
16139;SDS011;8175;49.326;12.690;2022-08-19T14:02:42;8.40;;;7.60;;
16139;SDS011;8175;49.326;12.690;2022-08-19T14:05:11;7.90;;;7.20;;
16139;SDS011;8175;49.326;12.690;2022-08-19T14:07:38;7.88;;;7.18;;
16139;SDS011;8175;49.326;12.690;2022-08-19T14:10:05;8.68;;;7.97;;
16139;SDS011;8175;49.326;12.690;2022-08-19T14:12:32;8.48;;;7.78;;
16139;SDS011;8175;49.326;12.690;2022-08-19T14:14:58;8.05;;;7.35;;
16139;SDS011;8175;49.326;12.690;2022-08-19T14:17:24;8.75;;;7.93;;
16139;SDS011;8175;49.326;12.690;2022-08-19T14:19:55;9.43;;;8.52;;
16139;SDS011;8175;49.326;12.690;2022-08-19T14:22:22;8.95;;;8.23;;
16139;SDS011;8175;49.326;12.690;2022-08-19T14:24:47;10.15;;;9.25;;
16139;SDS011;8175;49.326;12.690;2022-08-19T14:27:15;8.88;;;8.18;;
16139;SDS011;8175;49.326;12.690;2022-08-19T14:29:40;9.65;;;8.82;;
16139;SDS011;8175;49.326;12.690;2022-08-19T14:32:06;9.75;;;8.95;;
16139;SDS011;8175;49.326;12.690;2022-08-19T14:34:32;9.57;;;8.70;;
16139;SDS011;8175;49.326;12.690;2022-08-19T14:36:58;10.10;;;9.15;;
16139;SDS011;8175;49.326;12.690;2022-08-19T14:39:24;10.70;;;9.80;;
16139;SDS011;8175;49.326;12.690;2022-08-19T14:41:50;10.80;;;9.80;;
16139;SDS011;8175;49.326;12.690;2022-08-19T14:44:16;10.38;;;9.48;;
16139;SDS011;8175;49.326;12.690;2022-08-19T14:46:41;11.90;;;10.73;;
16139;SDS011;8175;49.326;12.690;2022-08-19T14:49:09;10.27;;;9.30;;